Friday, October 19, 2018, 3:20 AM EDT
Back to Local

KDKK, Chautauqua County/dunkirk

Location: Dunkirk, NY, United States Lat: 42.5
Local Time: 3:20 AM EDT ( 7:20 GMT) Lon: -79.283
Time Zone: US/Eastern Elev: 692 ft

Show me the last for .
Show Decoded

2018-10-19 02:53 METAR KDKK 190653Z AUTO 21012KT 10SM CLR 05/00 A3025 RMK AO2 SLP250 T00500000 =
2018-10-19 01:53 METAR KDKK 190553Z AUTO 21012KT 10SM CLR 05/M01 A3026 RMK AO2 SLP251 T00501006
                 10061 20039 56018 =
2018-10-19 00:53 METAR KDKK 190453Z AUTO 22013KT 10SM CLR 06/M01 A3026 RMK AO2 SLP253 T00611006
                 400720022 =
2018-10-18 23:53 METAR KDKK 190353Z AUTO 21011KT 10SM CLR 05/M01 A3028 RMK AO2 SLP261 T00501011 =
2018-10-18 22:53 METAR KDKK 190253Z AUTO 21010KT 10SM CLR 04/M01 A3031 RMK AO2 SLP269 T00391006
                 56015 =
2018-10-18 21:53 METAR KDKK 190153Z AUTO 21010KT 10SM CLR 04/M01 A3032 RMK AO2 SLP274 T00441011 =
2018-10-18 20:53 METAR KDKK 190053Z AUTO 21010KT 10SM CLR 04/00 A3034 RMK AO2 SLP279 T00440000 =
2018-10-18 19:53 METAR KDKK 182353Z AUTO 22010KT 10SM BKN032 06/01 A3036 RMK AO2 SLP285 T00560011
                 10072 20056 56012 =
2018-10-18 18:53 METAR KDKK 182253Z AUTO 22010KT 10SM BKN034 07/01 A3037 RMK AO2 SLP290 T00670011
                 =
2018-10-18 17:53 METAR KDKK 182153Z AUTO 23009G20KT 10SM OVC034 07/01 A3037 RMK AO2 SLP291
                 T00670006 =
2018-10-18 16:53 METAR KDKK 182053Z AUTO 25011KT 10SM BKN038 07/M01 A3039 RMK AO2 SLP296
                 T00721006 58018 =
2018-10-18 15:53 METAR KDKK 181953Z AUTO 25010G18KT 10SM OVC042 06/M01 A3042 RMK AO2 SLP305
                 T00611006 =
2018-10-18 14:53 METAR KDKK 181853Z AUTO 27007KT 10SM OVC041 06/M01 A3043 RMK AO2 SLP312
                 T00611011 =
2018-10-18 13:53 METAR KDKK 181753Z AUTO 25007G15KT 10SM OVC041 06/M02 A3044 RMK AO2 SLP315
                 T00561022 10061 20028 58008 =
2018-10-18 12:53 METAR KDKK 181653Z AUTO 28005KT 10SM OVC040 05/M02 A3047 RMK AO2 SLP324
                 T00501022 =
2018-10-18 11:53 METAR KDKK 181553Z AUTO 31006KT 10SM OVC041 05/M03 A3047 RMK AO2 SLP324
                 T00501028 =
2018-10-18 10:53 METAR KDKK 181453Z AUTO 33009KT 10SM OVC043 05/M04 A3047 RMK AO2 SLP323
                 T00501039 51014 =
2018-10-18 09:53 METAR KDKK 181353Z AUTO 32008KT 10SM BKN042 04/M04 A3046 RMK AO2 SLP320
                 T00391039 =
2018-10-18 08:53 METAR KDKK 181253Z AUTO 32009KT 10SM SCT031 OVC043 04/M03 A3044 RMK AO2 SLP314
                 T00391028 =
2018-10-18 07:53 METAR KDKK 181153Z AUTO 34009KT 10SM SCT034 SCT044 03/M03 A3043 RMK AO2 SLP309
                 70005 T00281028 10044 20022 51018 =
2018-10-18 06:53 METAR KDKK 181053Z AUTO 33011KT 10SM SCT034 OVC045 03/M03 A3042 RMK AO2 SLP306
                 T00331028 =
2018-10-18 05:53 METAR KDKK 180953Z AUTO 32013G21KT 10SM BKN039 OVC050 03/M03 A3040 RMK AO2
                 SLP298 T00331028 =
2018-10-18 04:53 METAR KDKK 180853Z AUTO 32013G23KT 10SM SCT031 SCT041 OVC055 04/M02 A3037 RMK
                 AO2 SLP290 T00391022 51014 =
2018-10-18 03:53 METAR KDKK 180753Z AUTO 31015G21KT 10SM FEW038 SCT048 OVC060 04/M03 A3036 RMK
                 AO2 PK WND 31027/0731 SLP287 T00391028 =

Support USWX by starting your Amazon purchase here.